Terminal Aerodrome Forecast
Issued by NWS

Current Version | Previous Version | Graphics & Text | Print | Product List | Glossary On
Versions: 1 2 3 4 5 6 7 8 9 10 11 12 13 14 15 16 17
000
FTUS41 KPBZ 212300
TAFMGW
TAF
KMGW 212324Z 2200/2224 28006KT P6SM SKC
     FM220900 VRB03KT 3SM BR FEW050
     FM221400 17003KT P6SM SCT050=

USA.gov is the U.S. government's official web portal to all federal, state and local government web resources and services.